Pinos Puente, Spain
Current Conditions -  °F | °C
As of 3:00 PM on Monday 26 Jan 2015 (Local Time) from LEGR Reporting Station
Clear Clear  
Wind Chill: 16°   Ceiling: Unl
Heat Index: 16°   Visibility: 6mi
Dew Point: -2°   Wind: 3mph
Humidity: 29%   Direction: 280°W
Pressure: 30.27"   Gusts: NA
Location:  37.25°N, 3.75°W
Report Text: LEGR 261400Z 28003KT 230V340 CAVOK 16/M02 Q1025
Loading
Personal Weather Stations






























Interactive Weather Map New forecast layout! Learn more

10-Day Weather Forecast

Advertisements
Track Severe Weather on mobile